Time;durP1;ratioP1;P1;durP2;ratioP2;P2;SDS_P1;SDS_P2;PMS_P1;PMS_P2;Temp;Humidity;BMP_temperature;BMP_pressure;BME280_temperature;BME280_humidity;BME280_pressure;Samples;Min_cycle;Max_cycle;Signal;HPM_P1;HPM_P2
2021/04/15 00:02:25;;;;;;;89.40;20.40;;;-0.20;1.00;;;;;;5135768;27;20218;-67
2021/04/15 00:04:51;;;;;;;91.18;23.75;;;-0.20;1.00;;;;;;5135689;27;20293;-67
2021/04/15 00:07:18;;;;;;;87.05;20.65;;;-0.30;1.00;;;;;;5135802;27;20293;-67
2021/04/15 00:09:45;;;;;;;76.10;16.60;;;-0.30;1.00;;;;;;5135671;27;20250;-66
2021/04/15 00:12:11;;;;;;;71.78;14.15;;;-0.30;1.00;;;;;;5135454;27;20201;-67
2021/04/15 00:14:37;;;;;;;75.05;14.27;;;-0.30;1.00;;;;;;5135778;27;20608;-67
2021/04/15 00:17:04;;;;;;;73.03;14.82;;;-0.40;1.00;;;;;;5135704;27;20616;-67
2021/04/15 00:19:30;;;;;;;72.93;14.98;;;-0.30;1.00;;;;;;5135358;27;20279;-67
2021/04/15 00:21:56;;;;;;;73.35;14.70;;;-0.40;1.00;;;;;;5135273;27;20203;-67
2021/04/15 00:24:23;;;;;;;69.57;12.65;;;-0.40;1.00;;;;;;5135438;27;20248;-67
2021/04/15 00:26:50;;;;;;;67.03;12.80;;;-0.40;1.00;;;;;;5135230;27;20238;-66
2021/04/15 00:29:16;;;;;;;68.50;12.02;;;-0.40;1.00;;;;;;5135129;27;20309;-67
2021/04/15 00:31:44;;;;;;;66.07;11.90;;;-0.50;1.00;;;;;;5135453;27;20664;-67
2021/04/15 00:34:10;;;;;;;69.25;13.02;;;-0.50;1.00;;;;;;5135141;27;20300;-67
2021/04/15 00:36:36;;;;;;;68.32;11.40;;;-0.50;1.00;;;;;;5135255;27;20206;-67
2021/04/15 00:39:05;;;;;;;66.20;11.02;;;-0.60;1.00;;;;;;5135002;27;20345;-67
2021/04/15 00:41:31;;;;;;;65.65;11.07;;;-0.60;1.00;;;;;;5135295;27;20578;-67
2021/04/15 00:43:59;;;;;;;68.30;11.95;;;-0.60;1.00;;;;;;5133989;27;20315;-67
2021/04/15 00:46:48;;;;;;;67.28;12.02;;;-0.60;1.00;;;;;;5135167;27;20699;-67
2021/04/15 00:49:18;;;;;;;66.53;12.40;;;-0.60;1.00;;;;;;5126814;27;20307;-67
2021/04/15 00:51:49;;;;;;;67.05;12.60;;;-0.70;1.00;;;;;;5134811;27;20301;-67
2021/04/15 00:54:29;;;;;;;65.43;11.88;;;-0.70;1.00;;;;;;5135101;27;20685;-67
2021/04/15 00:56:56;;;;;;;69.65;11.70;;;-0.70;1.00;;;;;;5134949;27;20298;-67
2021/04/15 00:59:24;;;;;;;65.78;11.10;;;-0.70;1.00;;;;;;5134706;27;20245;-67
2021/04/15 01:01:50;;;;;;;66.90;10.40;;;-0.70;1.00;;;;;;5134473;27;20294;-68
2021/04/15 01:04:17;;;;;;;65.88;12.05;;;-0.70;1.00;;;;;;5134537;27;20239;-68
2021/04/15 01:06:43;;;;;;;66.80;11.40;;;-0.80;1.00;;;;;;5134764;27;20344;-67
2021/04/15 01:09:09;;;;;;;67.90;11.35;;;-0.80;1.00;;;;;;5134672;27;20325;-67
2021/04/15 01:11:48;;;;;;;67.53;11.20;;;-0.80;1.00;;;;;;5134644;27;20310;-67
2021/04/15 01:14:25;;;;;;;66.75;11.80;;;-0.80;1.00;;;;;;5134680;27;20206;-67
2021/04/15 01:17:00;;;;;;;70.88;11.55;;;-0.80;1.00;;;;;;5135441;27;20226;-67
2021/04/15 01:20:01;;;;;;;67.45;11.00;;;-0.90;1.00;;;;;;5135917;27;20374;-67
2021/04/15 01:22:54;;;;;;;67.53;11.93;;;-0.90;1.00;;;;;;5135634;27;20701;-67
2021/04/15 01:25:38;;;;;;;68.07;12.60;;;-0.90;1.00;;;;;;5126706;27;20205;-67
2021/04/15 01:28:16;;;;;;;65.70;10.93;;;-0.90;1.00;;;;;;5134565;27;20642;-67
2021/04/15 01:30:49;;;;;;;65.45;11.15;;;-0.90;1.00;;;;;;5134469;27;20203;-67
2021/04/15 01:33:21;;;;;;;67.65;11.15;;;-0.90;1.00;;;;;;5134210;27;20582;-67
2021/04/15 01:35:53;;;;;;;65.00;11.10;;;-0.90;1.00;;;;;;5134292;27;20209;-67
2021/04/15 01:38:25;;;;;;;64.40;11.32;;;-1.00;1.00;;;;;;5133964;27;20249;-67
2021/04/15 01:40:56;;;;;;;67.68;11.15;;;-0.90;1.00;;;;;;5134287;27;20667;-67
2021/04/15 01:43:30;;;;;;;63.70;11.00;;;-0.90;1.00;;;;;;5134140;27;20222;-68
2021/04/15 01:45:58;;;;;;;65.97;11.65;;;-0.90;1.00;;;;;;5134099;27;20209;-67
2021/04/15 01:48:28;;;;;;;64.95;11.38;;;-0.90;1.00;;;;;;5133944;27;20590;-67
2021/04/15 01:50:56;;;;;;;64.57;10.50;;;-0.90;1.00;;;;;;5133978;27;20209;-67
2021/04/15 01:53:29;;;;;;;67.80;11.40;;;-0.90;1.00;;;;;;5133770;27;20231;-67
2021/04/15 01:56:01;;;;;;;64.97;10.93;;;-0.90;1.00;;;;;;5132896;27;20743;-67
2021/04/15 01:58:40;;;;;;;63.17;10.43;;;-0.90;1.00;;;;;;5133678;27;20237;-67
2021/04/15 02:01:10;;;;;;;66.13;10.73;;;-1.00;1.00;;;;;;5134039;27;20642;-67
2021/04/15 02:03:38;;;;;;;67.35;11.77;;;-1.00;1.00;;;;;;5133618;27;20272;-67
2021/04/15 02:06:09;;;;;;;66.05;10.93;;;-1.00;1.00;;;;;;5133638;27;20207;-67
2021/04/15 02:08:42;;;;;;;65.60;11.05;;;-1.00;1.00;;;;;;5134103;27;20243;-67
2021/04/15 02:11:16;;;;;;;64.97;11.15;;;-1.00;1.00;;;;;;5133537;27;20236;-67
2021/04/15 02:13:46;;;;;;;65.30;11.18;;;-1.00;1.00;;;;;;5133924;27;20331;-67
2021/04/15 02:16:16;;;;;;;65.88;11.10;;;-1.10;1.00;;;;;;5133936;27;20294;-67
2021/04/15 02:18:47;;;;;;;69.63;11.50;;;-1.10;1.00;;;;;;5133454;27;20233;-67
2021/04/15 02:21:24;;;;;;;63.55;10.07;;;-1.10;1.00;;;;;;5133632;27;20297;-67
2021/04/15 02:23:55;;;;;;;66.28;11.85;;;-1.10;1.00;;;;;;5133410;27;20219;-67
2021/04/15 02:26:32;;;;;;;69.00;13.82;;;-1.10;1.00;;;;;;5133446;27;20596;-67
2021/04/15 02:29:04;;;;;;;67.10;11.80;;;-1.10;1.00;;;;;;5133111;27;20305;-67
2021/04/15 02:31:38;;;;;;;66.60;11.88;;;-1.20;1.00;;;;;;5133282;27;20328;-67
2021/04/15 02:34:07;;;;;;;66.57;12.70;;;-1.20;1.00;;;;;;5133268;27;20289;-67
2021/04/15 02:36:40;;;;;;;67.22;11.30;;;-1.20;1.00;;;;;;5133279;27;20293;-67
2021/04/15 02:39:10;;;;;;;69.45;13.85;;;-1.30;1.00;;;;;;5133410;27;20245;-67
2021/04/15 02:41:39;;;;;;;67.40;12.38;;;-1.30;1.00;;;;;;5132967;27;20238;-67
2021/04/15 02:44:10;;;;;;;66.05;11.63;;;-1.30;1.00;;;;;;5132930;27;20257;-67
2021/04/15 02:46:44;;;;;;;67.43;12.60;;;-1.40;1.00;;;;;;5133660;27;20202;-67
2021/04/15 02:49:13;;;;;;;66.45;11.70;;;-1.40;1.00;;;;;;5132868;27;20783;-67
2021/04/15 02:51:44;;;;;;;67.60;13.13;;;-1.40;1.00;;;;;;5133337;27;20245;-67
2021/04/15 02:54:18;;;;;;;65.90;12.15;;;-1.50;1.00;;;;;;5133114;27;20640;-67
2021/04/15 02:56:50;;;;;;;66.95;12.63;;;-1.50;1.00;;;;;;5132861;27;20293;-67
2021/04/15 02:59:22;;;;;;;67.75;12.95;;;-1.50;1.00;;;;;;5133188;27;20254;-67
2021/04/15 03:01:54;;;;;;;67.00;11.73;;;-1.50;1.00;;;;;;5133037;27;20758;-67
2021/04/15 03:04:23;;;;;;;67.65;12.73;;;-1.60;1.00;;;;;;5133096;27;20367;-67
2021/04/15 03:06:51;;;;;;;67.45;12.13;;;-1.60;1.00;;;;;;5133387;27;20592;-67
2021/04/15 03:09:19;;;;;;;68.75;12.68;;;-1.70;1.00;;;;;;5137181;27;20250;-67
2021/04/15 03:11:50;;;;;;;68.47;12.88;;;-1.70;1.00;;;;;;5137557;27;20233;-67
2021/04/15 03:14:21;;;;;;;69.15;14.40;;;-1.70;1.00;;;;;;5137148;27;20575;-67
2021/04/15 03:16:50;;;;;;;68.80;13.07;;;-1.80;1.00;;;;;;5136999;27;20297;-67
2021/04/15 03:19:22;;;;;;;69.30;12.80;;;-1.80;1.00;;;;;;5136882;27;20267;-67
2021/04/15 03:21:56;;;;;;;67.35;12.20;;;-1.90;1.00;;;;;;5136810;27;20268;-67
2021/04/15 03:24:26;;;;;;;65.90;11.90;;;-1.90;1.00;;;;;;5136926;27;20717;-67
2021/04/15 03:26:57;;;;;;;69.43;13.35;;;-1.90;1.00;;;;;;5137469;27;20234;-67
2021/04/15 03:29:25;;;;;;;67.65;12.75;;;-2.00;1.00;;;;;;5136845;27;20230;-67
2021/04/15 03:32:13;;;;;;;69.25;14.18;;;-2.00;1.00;;;;;;5136738;27;20210;-68
2021/04/15 03:34:44;;;;;;;69.32;12.75;;;-2.10;1.00;;;;;;5136877;27;20202;-67
2021/04/15 03:37:15;;;;;;;69.97;13.90;;;-2.10;1.00;;;;;;5136498;27;20303;-67
2021/04/15 03:39:44;;;;;;;67.90;12.77;;;-2.10;1.00;;;;;;5136819;27;20287;-67
2021/04/15 03:42:20;;;;;;;65.85;12.10;;;-2.20;1.00;;;;;;5136639;27;20298;-67
2021/04/15 03:44:50;;;;;;;69.50;13.80;;;-2.20;1.00;;;;;;5136487;27;20285;-67
2021/04/15 03:47:20;;;;;;;66.93;13.27;;;-2.20;1.00;;;;;;5136846;27;20320;-67
2021/04/15 03:49:51;;;;;;;66.20;11.65;;;-2.30;1.00;;;;;;5136661;27;20330;-67
2021/04/15 03:52:22;;;;;;;68.78;13.48;;;-2.30;1.00;;;;;;5136558;27;20206;-67
2021/04/15 03:54:52;;;;;;;68.38;12.55;;;-2.30;1.00;;;;;;5136378;27;20298;-67
2021/04/15 03:57:22;;;;;;;72.80;13.88;;;-2.30;1.00;;;;;;5136197;27;20306;-67
2021/04/15 03:59:54;;;;;;;67.47;12.75;;;-2.40;1.00;;;;;;5136381;27;20318;-67
2021/04/15 04:02:26;;;;;;;67.53;13.18;;;-2.40;1.00;;;;;;5136283;27;20295;-67
2021/04/15 04:04:59;;;;;;;69.13;13.25;;;-2.40;1.00;;;;;;5135946;27;20235;-67
2021/04/15 04:07:31;;;;;;;68.40;13.60;;;-2.40;1.00;;;;;;5136168;27;20682;-67
2021/04/15 04:10:00;;;;;;;69.18;13.68;;;-2.40;1.00;;;;;;5135972;27;20219;-68
2021/04/15 04:12:40;;;;;;;71.03;14.52;;;-2.40;1.00;;;;;;5136278;27;20294;-67
2021/04/15 04:15:12;;;;;;;69.78;13.85;;;-2.40;1.00;;;;;;5136351;27;20289;-67
2021/04/15 04:17:45;;;;;;;68.20;13.60;;;-2.30;1.00;;;;;;5136024;27;20203;-67
2021/04/15 04:20:13;;;;;;;68.93;13.93;;;-2.40;1.00;;;;;;5134532;27;20222;-67
2021/04/15 04:22:51;;;;;;;68.32;12.90;;;-2.40;1.00;;;;;;5135688;27;20671;-67
2021/04/15 04:25:25;;;;;;;69.22;14.00;;;-2.40;1.00;;;;;;5135835;27;20690;-67
2021/04/15 04:27:57;;;;;;;68.70;12.80;;;-2.40;1.00;;;;;;5135622;27;20289;-67
2021/04/15 04:30:27;;;;;;;69.35;13.70;;;-2.40;1.00;;;;;;5135351;27;20336;-67
2021/04/15 04:32:59;;;;;;;69.78;13.95;;;-2.40;1.00;;;;;;5135800;27;20198;-67
2021/04/15 04:35:28;;;;;;;68.25;13.57;;;-2.40;1.00;;;;;;5136268;27;20203;-67
2021/04/15 04:37:58;;;;;;;73.53;12.80;;;-2.40;1.00;;;;;;5135672;27;20210;-67
2021/04/15 04:40:28;;;;;;;69.70;15.77;;;-2.30;1.00;;;;;;5135505;27;20226;-67
2021/04/15 04:42:58;;;;;;;68.85;13.18;;;-2.30;1.00;;;;;;5135025;27;20592;-67
2021/04/15 04:45:25;;;;;;;67.78;13.82;;;-2.30;1.00;;;;;;5135498;27;20298;-67
2021/04/15 04:47:58;;;;;;;71.15;14.98;;;-2.30;1.00;;;;;;5135209;27;20248;-67
2021/04/15 04:50:32;;;;;;;65.93;11.85;;;-2.30;1.00;;;;;;5135163;27;20227;-67
2021/04/15 04:53:00;;;;;;;70.55;13.23;;;-2.30;1.00;;;;;;5135016;27;20310;-67
2021/04/15 04:55:33;;;;;;;71.38;14.23;;;-2.30;1.00;;;;;;5134964;27;20238;-67
2021/04/15 04:58:00;;;;;;;70.53;13.95;;;-2.30;1.00;;;;;;5135058;27;20766;-67
2021/04/15 05:00:26;;;;;;;71.53;15.13;;;-2.30;1.00;;;;;;5134968;27;20248;-67
2021/04/15 05:02:54;;;;;;;72.40;14.95;;;-2.20;1.00;;;;;;5135114;27;20221;-67
2021/04/15 05:05:24;;;;;;;70.72;14.32;;;-2.20;1.00;;;;;;5135049;27;20324;-67
2021/04/15 05:07:57;;;;;;;70.80;14.48;;;-2.20;1.00;;;;;;5134775;27;20256;-67
2021/04/15 05:10:26;;;;;;;70.93;14.93;;;-2.10;1.00;;;;;;5135180;27;20322;-67
2021/04/15 05:13:05;;;;;;;67.78;12.55;;;-2.10;1.00;;;;;;5134966;27;20195;-67
2021/04/15 05:15:31;;;;;;;68.55;13.15;;;-2.10;1.00;;;;;;5134806;27;20207;-67
2021/04/15 05:17:58;;;;;;;70.05;13.63;;;-2.20;1.00;;;;;;5134805;27;20202;-66
2021/04/15 05:20:27;;;;;;;69.60;13.45;;;-2.20;1.00;;;;;;5134410;27;20309;-66
2021/04/15 05:23:00;;;;;;;71.75;14.10;;;-2.20;1.00;;;;;;5134409;27;20266;-66
2021/04/15 05:25:33;;;;;;;68.28;13.02;;;-2.20;1.00;;;;;;5134832;27;20290;-66
2021/04/15 05:28:01;;;;;;;71.35;13.90;;;-2.20;1.00;;;;;;5134742;27;20267;-66
2021/04/15 05:30:37;;;;;;;67.70;13.73;;;-2.20;1.00;;;;;;5134161;27;20253;-66
2021/04/15 05:33:06;;;;;;;69.88;13.90;;;-2.20;1.00;;;;;;5134397;27;20609;-66
2021/04/15 05:35:38;;;;;;;70.45;13.52;;;-2.20;1.00;;;;;;5134590;27;20290;-66
2021/04/15 05:38:07;;;;;;;68.75;13.68;;;-2.20;1.00;;;;;;5134242;27;20211;-66
2021/04/15 05:40:35;;;;;;;73.13;15.30;;;-2.20;1.00;;;;;;5133934;27;20234;-66
2021/04/15 05:43:17;;;;;;;71.43;13.88;;;-2.10;1.00;;;;;;5134617;27;20639;-66
2021/04/15 05:45:46;;;;;;;70.68;14.20;;;-2.10;1.00;;;;;;5134190;27;20203;-66
2021/04/15 05:48:14;;;;;;;71.43;15.00;;;-2.00;1.00;;;;;;5134474;27;20231;-66
2021/04/15 05:50:46;;;;;;;73.93;15.95;;;-2.00;1.00;;;;;;5133979;27;20199;-66
2021/04/15 05:53:17;;;;;;;73.10;15.13;;;-1.90;1.00;;;;;;5134258;27;20290;-66
2021/04/15 05:55:48;;;;;;;73.57;15.73;;;-1.90;1.00;;;;;;5134149;27;20294;-66
2021/04/15 05:58:20;;;;;;;73.00;15.45;;;-1.90;1.00;;;;;;5134528;27;20203;-66
2021/04/15 06:00:50;;;;;;;75.63;16.83;;;-1.80;1.00;;;;;;5134333;27;20750;-66
2021/04/15 06:03:25;;;;;;;73.55;16.25;;;-1.80;1.00;;;;;;5134005;27;20363;-66
2021/04/15 06:05:58;;;;;;;70.70;14.65;;;-1.80;1.00;;;;;;5133423;27;20293;-66
2021/04/15 06:08:28;;;;;;;74.03;16.73;;;-1.80;1.00;;;;;;5133431;27;20214;-66
2021/04/15 06:11:03;;;;;;;70.68;15.45;;;-1.80;1.00;;;;;;5134120;27;20213;-66
2021/04/15 06:13:38;;;;;;;70.43;14.43;;;-1.70;1.00;;;;;;5134032;27;20314;-67
2021/04/15 06:16:07;;;;;;;72.05;16.45;;;-1.70;1.00;;;;;;5133889;27;20614;-66
2021/04/15 06:18:37;;;;;;;71.80;16.00;;;-1.60;1.00;;;;;;5133469;27;20318;-67
2021/04/15 06:21:09;;;;;;;75.97;17.88;;;-1.50;1.00;;;;;;5133827;27;20198;-67
2021/04/15 06:23:41;;;;;;;76.07;17.00;;;-1.50;1.00;;;;;;5133620;27;20260;-67
2021/04/15 06:26:14;;;;;;;76.95;17.00;;;-1.50;1.00;;;;;;5133626;27;20608;-67
2021/04/15 06:28:43;;;;;;;73.57;16.45;;;-1.40;1.00;;;;;;5133164;27;20223;-67
2021/04/15 06:31:19;;;;;;;73.22;16.73;;;-1.40;1.00;;;;;;5133230;27;20230;-67
2021/04/15 06:33:46;;;;;;;71.70;16.15;;;-1.30;1.00;;;;;;5133181;27;20198;-67
2021/04/15 06:36:30;;;;;;;75.00;18.15;;;-1.30;1.00;;;;;;5133416;27;20215;-67
2021/04/15 06:39:03;;;;;;;75.57;17.65;;;-1.20;1.00;;;;;;5133238;27;20515;-67
2021/04/15 06:42:03;;;;;;;73.78;16.73;;;-1.20;1.00;;;;;;5132758;27;20735;-67
2021/04/15 06:45:02;;;;;;;77.15;19.15;;;-1.10;1.00;;;;;;5099006;27;20316;-67
2021/04/15 06:48:11;;;;;;;78.30;19.13;;;-1.10;1.00;;;;;;5133258;27;20198;-67
2021/04/15 06:50:44;;;;;;;74.20;17.80;;;-0.90;1.00;;;;;;5069512;28;20342;-67
2021/04/15 06:53:36;;;;;;;75.28;18.98;;;-0.90;1.00;;;;;;5067919;28;20284;-66
2021/04/15 06:56:20;;;;;;;78.85;17.90;;;-0.80;1.00;;;;;;5099942;27;20690;-66
2021/04/15 06:59:22;;;;;;;76.07;19.42;;;-0.70;1.00;;;;;;5112580;28;20233;-67
2021/04/15 07:01:57;;;;;;;77.50;18.80;;;-0.60;1.00;;;;;;5099484;28;20294;-67
2021/04/15 07:04:27;;;;;;;75.13;19.10;;;-0.50;1.00;;;;;;5112787;28;20313;-68
2021/04/15 07:06:59;;;;;;;77.10;19.95;;;-0.40;1.00;;;;;;5132488;27;20210;-68
2021/04/15 07:09:48;;;;;;;79.95;20.48;;;-0.30;1.00;;;;;;5132787;27;20223;-67
2021/04/15 07:12:50;;;;;;;79.78;20.65;;;-0.20;1.00;;;;;;5132885;27;20210;-67
2021/04/15 07:15:36;;;;;;;82.43;20.15;;;-0.10;1.00;;;;;;5132296;27;20365;-67
2021/04/15 07:18:24;;;;;;;75.22;19.67;;;0.00;1.00;;;;;;5133346;27;20289;-68
2021/04/15 07:21:09;;;;;;;75.22;18.38;;;0.10;1.00;;;;;;5133214;27;20202;-67
2021/04/15 07:24:14;;;;;;;77.88;19.75;;;0.20;1.00;;;;;;5132367;27;20338;-68
2021/04/15 07:26:56;;;;;;;77.60;19.75;;;0.40;1.00;;;;;;5133177;27;20340;-68
2021/04/15 07:29:42;;;;;;;77.47;19.60;;;0.50;1.00;;;;;;5132882;27;20229;-68
2021/04/15 07:32:28;;;;;;;78.50;18.38;;;0.60;1.00;;;;;;5133107;27;20290;-68
2021/04/15 07:35:37;;;;;;;72.68;17.77;;;0.70;1.00;;;;;;5132613;27;20286;-68
2021/04/15 07:38:21;;;;;;;73.05;17.85;;;0.90;1.00;;;;;;5111256;27;20234;-67
2021/04/15 07:41:10;;;;;;;72.25;17.63;;;1.10;1.00;;;;;;5132964;27;20475;-68
2021/04/15 07:44:00;;;;;;;72.47;18.05;;;1.20;1.00;;;;;;5132641;27;20322;-67
2021/04/15 07:46:35;;;;;;;72.88;17.30;;;1.40;1.00;;;;;;5132596;27;20211;-68
2021/04/15 07:49:19;;;;;;;71.07;16.33;;;1.60;1.00;;;;;;5132808;27;20317;-68
2021/04/15 07:52:28;;;;;;;71.93;16.38;;;1.80;1.00;;;;;;5132747;27;20203;-68
2021/04/15 07:55:13;;;;;;;70.60;14.90;;;1.90;1.00;;;;;;5136442;27;20696;-68
2021/04/15 07:58:24;;;;;;;69.47;14.15;;;2.10;1.00;;;;;;5136476;27;20206;-68
2021/04/15 08:01:36;;;;;;;68.60;14.30;;;2.20;1.00;;;;;;5130077;27;20225;-68
2021/04/15 08:04:32;;;;;;;69.40;14.18;;;2.40;1.00;;;;;;5136031;27;20313;-68
2021/04/15 08:07:20;;;;;;;68.20;12.77;;;2.60;1.00;;;;;;5135127;27;20246;-67
2021/04/15 08:09:58;;;;;;;65.05;11.77;;;2.70;1.00;;;;;;5136083;27;20302;-67
2021/04/15 08:12:55;;;;;;;63.88;10.25;;;2.90;1.00;;;;;;5136599;27;20204;-67
2021/04/15 08:15:41;;;;;;;63.25;9.20;;;3.00;1.00;;;;;;5135765;27;20207;-68
2021/04/15 08:18:28;;;;;;;61.90;9.57;;;3.10;1.00;;;;;;5124679;27;20670;-67
2021/04/15 08:21:05;;;;;;;63.90;9.57;;;3.20;1.00;;;;;;5136173;27;20666;-67
2021/04/15 08:23:57;;;;;;;65.05;10.05;;;3.30;1.00;;;;;;5135587;27;20333;-68
2021/04/15 08:26:58;;;;;;;66.70;10.07;;;3.50;1.00;;;;;;5135893;27;20195;-67
2021/04/15 08:29:43;;;;;;;64.15;9.40;;;3.60;1.00;;;;;;5135376;27;20218;-67
2021/04/15 08:32:23;;;;;;;64.00;9.68;;;3.80;1.00;;;;;;5135308;27;20210;-67
2021/04/15 08:35:01;;;;;;;64.70;10.40;;;4.00;1.00;;;;;;5135719;27;20191;-67
2021/04/15 08:37:55;;;;;;;64.43;10.73;;;4.20;1.00;;;;;;5134192;27;20234;-67
2021/04/15 08:40:29;;;;;;;65.47;10.40;;;4.40;1.00;;;;;;5135088;27;20271;-67
2021/04/15 08:43:11;;;;;;;65.03;10.85;;;4.60;1.00;;;;;;5135053;27;20747;-67
2021/04/15 08:45:44;;;;;;;62.95;9.90;;;4.80;1.00;;;;;;5135449;27;20290;-67
2021/04/15 08:48:23;;;;;;;64.10;8.98;;;5.00;1.00;;;;;;5135113;27;20203;-68
2021/04/15 08:51:07;;;;;;;63.35;8.55;;;5.20;1.00;;;;;;5135147;27;20300;-68
2021/04/15 08:54:03;;;;;;;61.92;8.80;;;5.40;1.00;;;;;;5135333;27;20237;-68
2021/04/15 08:56:33;;;;;;;64.25;8.40;;;5.60;1.00;;;;;;5134971;27;20206;-68
2021/04/15 08:59:17;;;;;;;61.70;7.18;;;5.80;1.00;;;;;;5134748;27;20685;-68
2021/04/15 09:01:53;;;;;;;63.55;7.80;;;6.00;1.00;;;;;;5135122;27;20291;-68
2021/04/15 09:04:25;;;;;;;63.30;7.80;;;6.20;1.00;;;;;;5134668;27;20261;-68
2021/04/15 09:06:59;;;;;;;59.92;6.93;;;6.30;1.00;;;;;;5134678;27;20242;-68
2021/04/15 09:09:36;;;;;;;60.42;6.57;;;6.40;1.00;;;;;;5133241;27;20262;-68
2021/04/15 09:12:18;;;;;;;60.08;6.57;;;6.60;1.00;;;;;;5134434;27;20289;-68
2021/04/15 09:15:05;;;;;;;60.80;6.68;;;6.70;1.00;;;;;;5134965;27;20290;-67
2021/04/15 09:17:38;;;;;;;58.80;5.90;;;6.90;1.00;;;;;;5134575;27;20203;-68
2021/04/15 09:20:12;;;;;;;60.65;6.18;;;7.10;1.00;;;;;;5134135;27;20313;-68
2021/04/15 09:23:15;;;;;;;60.75;6.68;;;7.40;1.00;;;;;;5134504;27;20559;-68
2021/04/15 09:25:53;;;;;;;59.85;5.65;;;7.70;1.00;;;;;;5134862;27;20217;-68
2021/04/15 09:28:30;;;;;;;62.70;6.05;;;7.90;1.00;;;;;;5134169;27;20206;-68
2021/04/15 09:31:09;;;;;;;60.45;6.50;;;8.10;1.00;;;;;;5134343;27;20750;-68
2021/04/15 09:34:20;;;;;;;59.97;6.50;;;8.20;1.00;;;;;;5134334;27;20305;-68
2021/04/15 09:37:00;;;;;;;60.53;6.22;;;8.10;1.00;;;;;;5103186;27;20272;-68
2021/04/15 09:40:01;;;;;;;59.85;5.90;;;8.20;1.00;;;;;;5133012;27;20738;-67
2021/04/15 09:42:52;;;;;;;59.20;5.88;;;8.50;1.00;;;;;;5133716;27;20753;-68
2021/04/15 09:45:25;;;;;;;58.80;5.25;;;8.70;1.00;;;;;;5133915;27;20253;-68
2021/04/15 09:48:13;;;;;;;59.67;5.67;;;9.10;1.00;;;;;;5134159;27;20209;-68
2021/04/15 09:50:48;;;;;;;58.67;5.27;;;9.50;1.00;;;;;;5134065;27;20821;-68
2021/04/15 09:53:37;;;;;;;60.37;5.10;;;10.10;1.00;;;;;;5133695;27;20890;-68
2021/04/15 09:56:32;;;;;;;62.03;4.67;;;10.50;1.00;;;;;;5133771;27;20890;-68
2021/04/15 09:59:09;;;;;;;60.53;7.37;;;10.80;1.00;;;;;;5133678;27;20467;-68
2021/04/15 10:01:40;;;;;;;59.10;6.57;;;10.90;1.00;;;;;;5133574;27;20869;-68
2021/04/15 10:04:13;;;;;;;60.20;5.60;;;10.70;1.00;;;;;;5133403;27;20626;-67
2021/04/15 10:06:46;;;;;;;62.13;5.70;;;10.50;1.00;;;;;;5134073;27;20449;-67
2021/04/15 10:09:27;;;;;;;61.60;6.50;;;10.20;1.00;;;;;;5133732;27;20950;-67
2021/04/15 10:12:28;;;;;;;59.20;5.80;;;10.70;1.00;;;;;;5131650;27;20452;-67
2021/04/15 10:15:27;;;;;;;58.33;5.80;;;11.30;1.00;;;;;;5126861;27;20449;-67
2021/04/15 10:18:12;;;;;;;60.10;5.60;;;12.50;1.00;;;;;;5120105;27;20444;-67
2021/04/15 10:21:05;;;;;;;59.73;5.70;;;13.10;1.00;;;;;;5132381;27;20588;-67
2021/04/15 10:24:00;;;;;;;60.30;5.87;;;12.80;1.00;;;;;;5125065;27;20571;-67
2021/04/15 10:26:57;;;;;;;59.33;5.57;;;12.30;1.00;;;;;;5133150;27;20600;-67
2021/04/15 10:29:50;;;;;;;61.00;5.80;;;11.90;1.00;;;;;;5133282;27;20555;-67
2021/04/15 10:32:38;;;;;;;60.87;6.03;;;11.60;1.00;;;;;;5133731;27;20900;-67
2021/04/15 10:35:29;;;;;;;59.47;5.30;;;11.40;1.00;;;;;;5133077;27;20440;-67
2021/04/15 10:38:29;;;;;;;58.70;5.73;;;11.30;1.00;;;;;;5133167;27;20494;-67
2021/04/15 10:41:18;;;;;;;59.93;4.70;;;11.20;1.00;;;;;;5133471;27;20479;-66
2021/04/15 10:44:10;;;;;;;58.87;4.83;;;11.10;1.00;;;;;;5132945;27;20486;-67
2021/04/15 10:46:49;;;;;;;58.90;5.13;;;11.00;1.00;;;;;;5133267;27;20458;-66
2021/04/15 10:49:39;;;;;;;58.37;4.83;;;11.20;1.00;;;;;;5133436;27;20556;-67
2021/04/15 10:52:23;;;;;;;57.97;4.40;;;12.90;1.00;;;;;;5132845;27;20440;-67
2021/04/15 10:54:50;;;;;;;61.40;4.00;;;15.20;1.00;;;;;;5133031;27;20441;-68
2021/04/15 10:57:20;;;;;;;59.07;4.47;;;16.60;1.00;;;;;;5133048;27;20450;-68
2021/04/15 10:59:48;;;;;;;60.23;4.13;;;16.40;1.00;;;;;;5132863;27;20861;-68
2021/04/15 11:02:25;;;;;;;57.40;4.00;;;16.30;1.00;;;;;;5132916;27;20442;-68
2021/04/15 11:04:55;;;;;;;56.97;3.97;;;17.50;1.00;;;;;;5132792;27;20520;-67
2021/04/15 11:07:25;;;;;;;58.40;4.40;;;18.60;1.00;;;;;;5133286;27;20497;-68
2021/04/15 11:09:52;;;;;;;59.37;4.40;;;20.10;1.00;;;;;;5132915;27;20468;-68
2021/04/15 11:12:30;;;;;;;56.63;4.27;;;21.20;1.00;;;;;;5133068;27;20477;-68
2021/04/15 11:15:14;;;;;;;58.40;4.27;;;21.90;1.00;;;;;;5133019;27;20491;-68
2021/04/15 11:17:43;;;;;;;57.80;3.77;;;22.20;1.00;;;;;;5132835;27;20445;-67
2021/04/15 11:20:23;;;;;;;57.63;3.60;;;22.50;1.00;;;;;;5132551;27;20491;-66
2021/04/15 11:22:59;;;;;;;57.20;3.80;;;23.10;1.00;;;;;;5132378;27;20486;-67
2021/04/15 11:25:28;;;;;;;57.43;4.03;;;23.90;1.00;;;;;;5132476;27;20448;-67
2021/04/15 11:27:59;;;;;;;58.57;3.90;;;24.10;1.00;;;;;;5133350;27;20538;-67
2021/04/15 11:30:45;;;;;;;57.27;3.50;;;24.60;1.00;;;;;;5134933;27;20463;-67
2021/04/15 11:33:30;;;;;;;57.97;3.57;;;25.00;1.00;;;;;;5136237;27;20483;-65
2021/04/15 11:36:05;;;;;;;58.00;3.53;;;25.40;1.00;;;;;;5136135;27;20536;-66
2021/04/15 11:38:32;;;;;;;57.87;3.53;;;25.90;1.00;;;;;;5135014;27;20778;-65
2021/04/15 11:40:58;;;;;;;57.97;3.33;;;26.40;1.00;;;;;;5136547;27;20540;-67
2021/04/15 11:43:31;;;;;;;57.30;3.60;;;26.70;1.00;;;;;;5135350;27;20938;-67
2021/04/15 11:46:16;;;;;;;57.67;3.47;;;27.20;1.00;;;;;;5136344;27;20441;-67
2021/04/15 11:48:43;;;;;;;58.27;3.47;;;27.40;1.00;;;;;;5136293;27;20559;-68
2021/04/15 11:51:15;;;;;;;56.77;3.50;;;27.70;1.00;;;;;;5136194;27;20472;-67
2021/04/15 11:53:46;;;;;;;57.10;3.70;;;28.00;1.00;;;;;;5135272;27;20563;-68
2021/04/15 11:56:32;;;;;;;57.10;3.27;;;28.40;1.00;;;;;;5129340;27;21011;-68
2021/04/15 11:59:14;;;;;;;60.00;4.00;;;29.10;1.00;;;;;;5134978;27;20846;-68
2021/04/15 12:01:41;;;;;;;56.77;3.60;;;29.40;1.00;;;;;;5134466;27;20535;-68
2021/04/15 12:04:12;;;;;;;57.20;3.30;;;29.30;1.00;;;;;;5133957;27;20527;-68
2021/04/15 12:06:44;;;;;;;56.40;3.50;;;29.30;1.00;;;;;;5134490;27;20547;-68
2021/04/15 12:09:15;;;;;;;57.33;3.83;;;28.70;1.00;;;;;;5134050;27;20617;-67
2021/04/15 12:11:56;;;;;;;58.30;4.10;;;27.70;1.00;;;;;;5134621;27;20470;-68
2021/04/15 12:14:22;;;;;;;58.50;4.33;;;26.90;1.00;;;;;;5135384;27;20962;-67
2021/04/15 12:16:58;;;;;;;58.70;4.33;;;25.40;1.00;;;;;;5135627;27;20454;-67
2021/04/15 12:19:32;;;;;;;57.10;3.67;;;24.10;1.00;;;;;;5135458;27;20505;-68
2021/04/15 12:22:04;;;;;;;56.77;3.73;;;23.60;1.00;;;;;;5135556;27;20464;-67
2021/04/15 12:24:38;;;;;;;57.40;4.20;;;23.50;1.00;;;;;;5135680;27;20448;-67
2021/04/15 12:27:08;;;;;;;59.87;3.50;;;24.00;1.00;;;;;;5135407;27;20455;-67
2021/04/15 12:29:40;;;;;;;58.50;4.50;;;23.90;1.00;;;;;;5135231;27;20468;-67
2021/04/15 12:32:14;;;;;;;58.27;4.30;;;23.00;1.00;;;;;;5135309;27;20539;-67
2021/04/15 12:34:54;;;;;;;57.60;4.20;;;22.40;1.00;;;;;;5135231;27;21074;-67
2021/04/15 12:37:28;;;;;;;59.00;4.60;;;22.40;1.00;;;;;;5135396;27;20523;-67
2021/04/15 12:40:17;;;;;;;58.27;3.40;;;22.80;1.00;;;;;;5134273;27;20517;-66
2021/04/15 12:42:46;;;;;;;56.37;3.10;;;24.00;1.00;;;;;;5135260;27;20441;-66
2021/04/15 12:45:18;;;;;;;56.87;3.43;;;24.70;1.00;;;;;;5135388;27;20501;-66
2021/04/15 12:47:52;;;;;;;57.90;3.87;;;25.40;1.00;;;;;;5135566;27;20478;-66
2021/04/15 12:50:21;;;;;;;57.13;3.73;;;26.20;1.00;;;;;;5136521;27;20502;-66
2021/04/15 12:52:50;;;;;;;57.50;3.70;;;26.60;1.00;;;;;;5136544;27;20455;-67
2021/04/15 12:55:20;;;;;;;57.07;3.87;;;26.70;1.00;;;;;;5135638;27;20504;-68
2021/04/15 12:57:48;;;;;;;58.43;3.37;;;27.10;1.00;;;;;;5134983;27;20530;-67
2021/04/15 13:00:18;;;;;;;58.13;3.47;;;27.50;1.00;;;;;;5133555;27;20466;-67
2021/04/15 13:02:45;;;;;;;57.43;3.00;;;27.60;1.00;;;;;;5134169;27;20448;-67
2021/04/15 13:05:26;;;;;;;56.10;2.90;;;27.70;1.00;;;;;;5134172;27;20960;-66
2021/04/15 13:07:54;;;;;;;57.23;2.90;;;27.60;1.00;;;;;;5134724;27;20534;-67
2021/04/15 13:10:30;;;;;;;56.50;3.30;;;27.60;1.00;;;;;;5134476;27;20552;-67
2021/04/15 13:12:57;;;;;;;56.30;3.10;;;27.90;1.00;;;;;;5134411;27;21015;-66
2021/04/15 13:15:40;;;;;;;56.33;2.93;;;28.10;1.00;;;;;;5134464;27;20437;-67
2021/04/15 13:18:08;;;;;;;56.60;3.20;;;27.90;1.00;;;;;;5134474;27;20458;-66
2021/04/15 13:20:41;;;;;;;55.90;2.60;;;27.00;99.90;;;;;;5134468;27;20881;-66
2021/04/15 13:23:41;;;;;;;56.47;3.20;;;27.00;1.00;;;;;;5133166;27;20447;-67
2021/04/15 13:26:45;;;;;;;56.20;2.83;;;27.10;1.00;;;;;;5115686;27;20542;-66
2021/04/15 13:29:32;;;;;;;57.97;3.13;;;26.80;1.00;;;;;;5133821;27;20899;-66
2021/04/15 13:32:01;;;;;;;56.80;3.30;;;26.80;1.00;;;;;;5133949;27;20472;-67